Time;durP1;ratioP1;P1;durP2;ratioP2;P2;SDS_P1;SDS_P2;PMS_P1;PMS_P2;Temp;Humidity;BMP_temperature;BMP_pressure;BME280_temperature;BME280_humidity;BME280_pressure;Samples;Min_cycle;Max_cycle;Signal;HPM_P1;HPM_P2
2021/04/15 00:00:43;;;;;;;10.63;4.32;;;-1.10;99.90;;;;;;5055586;28;20028;-81
2021/04/15 00:03:15;;;;;;;7.70;4.38;;;-1.10;99.90;;;;;;5055454;28;20193;-81
2021/04/15 00:05:44;;;;;;;7.65;3.83;;;-1.10;99.90;;;;;;5056124;28;20089;-81
2021/04/15 00:08:13;;;;;;;8.48;3.20;;;-1.10;99.90;;;;;;5056437;28;20028;-81
2021/04/15 00:10:43;;;;;;;9.13;4.00;;;-1.10;99.90;;;;;;5056353;28;20369;-81
2021/04/15 00:13:23;;;;;;;7.70;4.20;;;-1.10;99.90;;;;;;5057635;28;20032;-81
2021/04/15 00:15:50;;;;;;;7.75;3.90;;;-1.10;99.90;;;;;;5057727;28;20027;-80
2021/04/15 00:18:18;;;;;;;7.75;3.75;;;-1.10;99.90;;;;;;5056545;28;20321;-81
2021/04/15 00:20:46;;;;;;;7.43;3.60;;;-1.10;99.90;;;;;;5056224;28;20025;-80
2021/04/15 00:23:14;;;;;;;8.02;4.05;;;-1.20;99.90;;;;;;5055719;28;20048;-80
2021/04/15 00:25:42;;;;;;;8.52;3.47;;;-1.20;99.90;;;;;;5055452;28;20025;-80
2021/04/15 00:28:10;;;;;;;10.75;3.60;;;-1.20;99.90;;;;;;5055252;28;20082;-81
2021/04/15 00:30:38;;;;;;;6.28;3.45;;;-1.20;99.90;;;;;;5055263;28;20021;-81
2021/04/15 00:33:10;;;;;;;5.50;2.83;;;-1.20;99.90;;;;;;5055238;28;20112;-81
2021/04/15 00:35:39;;;;;;;6.40;3.38;;;-1.20;99.90;;;;;;5055109;28;20040;-81
2021/04/15 00:38:08;;;;;;;8.32;3.83;;;-1.20;99.90;;;;;;5056547;28;20043;-81
2021/04/15 00:40:37;;;;;;;7.72;4.20;;;-1.20;99.90;;;;;;5055173;28;20078;-81
2021/04/15 00:43:05;;;;;;;6.45;3.42;;;-1.20;99.90;;;;;;5056467;28;20463;-81
2021/04/15 00:45:40;;;;;;;6.63;3.88;;;-1.30;99.90;;;;;;5055156;28;20437;-81
2021/04/15 00:48:31;;;;;;;9.27;3.50;;;-1.30;99.90;;;;;;5055371;28;20036;-81
2021/04/15 00:51:12;;;;;;;7.57;4.07;;;-1.20;99.90;;;;;;5057068;28;20325;-81
2021/04/15 00:53:47;;;;;;;10.38;4.30;;;-1.20;99.90;;;;;;5057061;28;20025;-81
2021/04/15 00:56:16;;;;;;;7.20;3.60;;;-1.20;99.90;;;;;;5055839;28;20448;-81
2021/04/15 00:58:45;;;;;;;8.50;4.40;;;-1.10;99.90;;;;;;5057052;28;20029;-81
2021/04/15 01:01:13;;;;;;;7.93;3.85;;;-1.10;99.90;;;;;;5055862;28;20025;-81
2021/04/15 01:03:40;;;;;;;7.05;3.72;;;-1.10;99.90;;;;;;5055768;28;20036;-81
2021/04/15 01:06:09;;;;;;;5.90;2.92;;;-1.10;99.90;;;;;;5060867;28;20100;-81
2021/04/15 01:08:37;;;;;;;7.22;3.83;;;-1.10;99.90;;;;;;5059049;28;20021;-81
2021/04/15 01:11:18;;;;;;;10.18;3.80;;;-1.10;99.90;;;;;;5060141;28;20108;-81
2021/04/15 01:13:58;;;;;;;7.45;3.42;;;-1.10;99.90;;;;;;5058682;28;20428;-81
2021/04/15 01:16:35;;;;;;;7.13;3.78;;;-1.10;99.90;;;;;;5058616;28;20051;-81
2021/04/15 01:19:30;;;;;;;8.13;4.63;;;-1.10;99.90;;;;;;5058510;28;20428;-81
2021/04/15 01:22:39;;;;;;;7.22;3.83;;;-1.10;99.90;;;;;;5058187;28;20076;-81
2021/04/15 01:25:25;;;;;;;10.70;3.92;;;-1.10;99.90;;;;;;5058200;28;20104;-81
2021/04/15 01:28:03;;;;;;;11.30;4.03;;;-1.10;99.90;;;;;;5058431;28;20074;-81
2021/04/15 01:30:41;;;;;;;8.43;4.28;;;-1.10;99.90;;;;;;5058755;28;20167;-81
2021/04/15 01:33:31;;;;;;;7.90;3.85;;;-1.10;99.90;;;;;;5059193;28;20116;-82
2021/04/15 01:36:06;;;;;;;8.35;3.88;;;-1.10;99.90;;;;;;5059216;28;20369;-81
2021/04/15 01:38:36;;;;;;;7.43;4.15;;;-1.10;99.90;;;;;;5060549;28;20025;-81
2021/04/15 01:41:24;;;;;;;7.63;3.67;;;-1.10;99.90;;;;;;5059175;28;20108;-81
2021/04/15 01:44:18;;;;;;;6.78;4.03;;;-1.20;99.90;;;;;;5058953;28;20025;-81
2021/04/15 01:46:47;;;;;;;8.40;3.63;;;-1.20;99.90;;;;;;5055312;28;20360;-81
2021/04/15 01:49:23;;;;;;;8.43;4.28;;;-1.20;99.90;;;;;;5060060;28;20035;-81
2021/04/15 01:51:53;;;;;;;7.80;4.50;;;-1.30;99.90;;;;;;5058472;28;20021;-81
2021/04/15 01:54:48;;;;;;;9.43;3.95;;;-1.30;99.90;;;;;;5057888;28;20041;-81
2021/04/15 01:57:45;;;;;;;7.75;4.00;;;-1.30;99.90;;;;;;5058990;28;20045;-82
2021/04/15 02:00:27;;;;;;;7.15;3.83;;;-1.40;99.90;;;;;;5057821;28;20031;-81
2021/04/15 02:03:06;;;;;;;7.43;4.55;;;-1.30;99.90;;;;;;5057569;28;20420;-81
2021/04/15 02:05:39;;;;;;;13.00;4.65;;;-1.30;99.90;;;;;;5057700;28;20324;-81
2021/04/15 02:08:23;;;;;;;10.32;4.32;;;-1.30;99.90;;;;;;5057682;28;20052;-82
2021/04/15 02:10:58;;;;;;;9.18;4.30;;;-1.30;99.90;;;;;;5057650;28;20297;-82
2021/04/15 02:13:28;;;;;;;7.35;4.00;;;-1.30;99.90;;;;;;5058671;28;20021;-82
2021/04/15 02:16:03;;;;;;;11.65;4.50;;;-1.30;99.90;;;;;;5059491;28;20478;-82
2021/04/15 02:18:44;;;;;;;7.80;4.22;;;-1.30;99.90;;;;;;5058350;28;20032;-82
2021/04/15 02:21:30;;;;;;;8.55;4.55;;;-1.30;99.90;;;;;;5059465;28;20024;-82
2021/04/15 02:24:12;;;;;;;8.45;4.88;;;-1.40;99.90;;;;;;5058238;28;20037;-82
2021/04/15 02:26:41;;;;;;;8.93;4.40;;;-1.40;99.90;;;;;;5059367;28;20051;-82
2021/04/15 02:29:22;;;;;;;8.10;4.45;;;-1.40;99.90;;;;;;5058155;28;20413;-82
2021/04/15 02:32:06;;;;;;;10.60;4.80;;;-1.40;99.90;;;;;;5059263;28;20035;-82
2021/04/15 02:34:44;;;;;;;9.52;5.22;;;-1.50;99.90;;;;;;5057479;28;20017;-82
2021/04/15 02:37:29;;;;;;;10.43;5.32;;;-1.50;99.90;;;;;;5057148;28;20025;-83
2021/04/15 02:40:05;;;;;;;10.10;4.57;;;-1.50;99.90;;;;;;5058505;28;20032;-83
2021/04/15 02:42:38;;;;;;;7.88;4.22;;;-1.60;99.90;;;;;;5058070;28;20112;-82
2021/04/15 02:45:26;;;;;;;12.18;4.90;;;-1.60;99.90;;;;;;5056932;28;20083;-82
2021/04/15 02:48:17;;;;;;;10.45;5.65;;;-1.60;99.90;;;;;;5058040;28;20017;-83
2021/04/15 02:50:45;;;;;;;10.73;4.60;;;-1.60;99.90;;;;;;5057941;28;20049;-82
2021/04/15 02:53:19;;;;;;;9.32;4.70;;;-1.70;99.90;;;;;;5056796;28;20025;-82
2021/04/15 02:55:59;;;;;;;10.75;4.72;;;-1.70;99.90;;;;;;5056756;28;20025;-82
2021/04/15 02:58:36;;;;;;;9.40;4.50;;;-1.70;99.90;;;;;;5057340;28;20028;-82
2021/04/15 03:01:08;;;;;;;14.75;5.90;;;-1.80;99.90;;;;;;5057611;28;20033;-82
2021/04/15 03:03:37;;;;;;;10.23;5.18;;;-1.80;99.90;;;;;;5057414;28;20340;-82
2021/04/15 03:06:19;;;;;;;11.13;4.85;;;-1.80;99.90;;;;;;5057549;28;20120;-82
2021/04/15 03:08:50;;;;;;;7.65;4.22;;;-1.80;99.90;;;;;;5058574;28;20104;-82
2021/04/15 03:11:23;;;;;;;9.55;5.22;;;-1.80;99.90;;;;;;5058511;28;20017;-82
2021/04/15 03:14:06;;;;;;;10.68;5.32;;;-1.90;99.90;;;;;;5057343;28;20032;-82
2021/04/15 03:16:40;;;;;;;10.48;5.30;;;-1.90;99.90;;;;;;5057241;28;20025;-83
2021/04/15 03:19:23;;;;;;;9.88;4.97;;;-2.00;99.90;;;;;;5056241;28;20025;-83
2021/04/15 03:22:09;;;;;;;10.77;5.57;;;-2.00;99.90;;;;;;5054750;28;20021;-83
2021/04/15 03:24:51;;;;;;;11.43;4.90;;;-2.00;99.90;;;;;;5019839;28;20135;-83
2021/04/15 03:28:03;;;;;;;10.55;5.25;;;-2.00;99.90;;;;;;5036653;28;20056;-82
2021/04/15 03:30:46;;;;;;;11.10;5.57;;;-2.00;99.90;;;;;;5019728;28;20108;-82
2021/04/15 03:33:22;;;;;;;7.75;4.80;;;-2.00;99.90;;;;;;5037236;28;20321;-83
2021/04/15 03:36:24;;;;;;;8.23;5.20;;;-2.10;99.90;;;;;;5019527;28;20029;-82
2021/04/15 03:39:07;;;;;;;10.00;4.88;;;-2.10;99.90;;;;;;5016586;28;20033;-83
2021/04/15 03:41:41;;;;;;;10.50;5.93;;;-2.10;99.90;;;;;;5037408;28;20056;-82
2021/04/15 03:44:29;;;;;;;12.80;5.22;;;-2.10;99.90;;;;;;5020397;28;20417;-82
2021/04/15 03:47:04;;;;;;;12.40;4.72;;;-2.20;99.90;;;;;;5037893;28;20044;-82
2021/04/15 03:49:52;;;;;;;11.35;5.53;;;-2.20;99.90;;;;;;5020230;28;20079;-82
2021/04/15 03:52:28;;;;;;;8.95;4.85;;;-2.20;99.90;;;;;;5020322;28;20112;-83
2021/04/15 03:55:26;;;;;;;11.47;6.30;;;-2.20;99.90;;;;;;5038084;28;20029;-82
2021/04/15 03:57:59;;;;;;;12.90;6.13;;;-2.20;99.90;;;;;;5020189;28;20268;-82
2021/04/15 04:00:53;;;;;;;11.13;5.22;;;-2.20;99.90;;;;;;5036950;28;20025;-82
2021/04/15 04:03:29;;;;;;;11.60;5.45;;;-2.20;99.90;;;;;;5019093;28;20491;-82
2021/04/15 04:06:15;;;;;;;12.80;5.70;;;-2.20;99.90;;;;;;5036695;28;20022;-82
2021/04/15 04:09:03;;;;;;;10.77;5.63;;;-2.20;99.90;;;;;;5036953;28;20021;-82
2021/04/15 04:11:35;;;;;;;7.97;5.20;;;-2.20;99.90;;;;;;5036894;28;20024;-82
2021/04/15 04:14:13;;;;;;;12.23;5.50;;;-2.20;99.90;;;;;;5019010;28;20018;-82
2021/04/15 04:16:46;;;;;;;10.88;5.50;;;-2.20;99.90;;;;;;5019033;28;20324;-82
2021/04/15 04:19:35;;;;;;;12.35;5.28;;;-2.20;99.90;;;;;;5036439;28;20102;-82
2021/04/15 04:22:15;;;;;;;13.60;5.45;;;-2.30;99.90;;;;;;5036596;28;20044;-82
2021/04/15 04:24:48;;;;;;;12.27;6.18;;;-2.30;99.90;;;;;;5037515;28;20309;-82
2021/04/15 04:27:34;;;;;;;11.85;5.72;;;-2.30;99.90;;;;;;5019847;28;20034;-82
2021/04/15 04:30:16;;;;;;;13.20;6.07;;;-2.20;99.90;;;;;;5019836;28;20021;-82
2021/04/15 04:32:47;;;;;;;11.50;5.53;;;-2.20;99.90;;;;;;5037298;28;20025;-82
2021/04/15 04:35:23;;;;;;;14.65;7.13;;;-2.20;99.90;;;;;;5019761;28;20036;-82
2021/04/15 04:37:53;;;;;;;27.75;8.05;;;-2.20;99.90;;;;;;5019689;28;20025;-82
2021/04/15 04:40:41;;;;;;;12.93;7.45;;;-2.20;99.90;;;;;;5041431;28;20025;-81
2021/04/15 04:43:27;;;;;;;14.65;7.00;;;-2.20;99.90;;;;;;5023347;28;20025;-81
2021/04/15 04:46:08;;;;;;;9.90;5.43;;;-2.20;99.90;;;;;;5040334;28;20048;-81
2021/04/15 04:48:41;;;;;;;12.88;5.90;;;-2.20;99.90;;;;;;5022849;28;20400;-82
2021/04/15 04:51:12;;;;;;;12.35;5.43;;;-2.20;99.90;;;;;;5022545;28;20033;-81
2021/04/15 04:53:45;;;;;;;13.73;6.85;;;-2.20;99.90;;;;;;5022660;28;20025;-81
2021/04/15 04:56:36;;;;;;;10.23;5.90;;;-2.30;99.90;;;;;;5022535;28;20067;-81
2021/04/15 04:59:27;;;;;;;10.63;5.97;;;-2.30;99.90;;;;;;5039937;28;20079;-81
2021/04/15 05:01:55;;;;;;;12.70;5.85;;;-2.30;99.90;;;;;;5022380;28;20379;-81
2021/04/15 05:04:24;;;;;;;13.82;7.13;;;-2.30;99.90;;;;;;5022346;28;20116;-81
2021/04/15 05:07:01;;;;;;;14.25;6.75;;;-2.30;99.90;;;;;;5022845;28;20025;-81
2021/04/15 05:09:42;;;;;;;11.80;6.88;;;-2.20;99.90;;;;;;5040786;28;20022;-81
2021/04/15 05:12:15;;;;;;;12.38;6.43;;;-2.20;99.90;;;;;;5023204;28;20064;-81
2021/04/15 05:14:43;;;;;;;14.02;7.28;;;-2.10;99.90;;;;;;5023172;28;20025;-81
2021/04/15 05:17:32;;;;;;;13.88;6.60;;;-2.00;99.90;;;;;;5023153;28;20029;-81
2021/04/15 05:20:20;;;;;;;11.90;6.38;;;-2.00;99.90;;;;;;5023015;28;20028;-83
2021/04/15 05:23:17;;;;;;;20.58;6.35;;;-1.90;99.90;;;;;;5039567;28;20052;-82
2021/04/15 05:26:10;;;;;;;13.25;6.15;;;-1.90;99.90;;;;;;4989849;28;20390;-83
2021/04/15 05:28:39;;;;;;;13.25;7.13;;;-1.80;99.90;;;;;;5059251;28;20025;-82
2021/04/15 05:31:14;;;;;;;20.63;11.20;;;-1.80;99.90;;;;;;5058325;28;20025;-81
2021/04/15 05:33:42;;;;;;;28.02;14.63;;;-1.70;99.90;;;;;;5058277;28;20120;-81
2021/04/15 05:36:20;;;;;;;17.50;9.75;;;-1.70;99.90;;;;;;5058175;28;20071;-81
2021/04/15 05:38:50;;;;;;;19.13;8.48;;;-1.60;99.90;;;;;;5058190;28;20028;-78
2021/04/15 05:41:28;;;;;;;14.15;7.38;;;-1.60;99.90;;;;;;5059220;28;20025;-80
2021/04/15 05:44:26;;;;;;;16.85;7.55;;;-1.50;99.90;;;;;;5057965;28;20440;-79
2021/04/15 05:47:28;;;;;;;13.82;7.00;;;-1.50;99.90;;;;;;5058031;28;20025;-78
2021/04/15 05:50:12;;;;;;;24.25;7.22;;;-1.40;99.90;;;;;;5058721;28;20147;-78
2021/04/15 05:52:54;;;;;;;12.65;6.93;;;-1.40;99.90;;;;;;5059965;28;20029;-78
2021/04/15 05:55:34;;;;;;;16.38;7.25;;;-1.40;99.90;;;;;;5059022;28;20307;-78
2021/04/15 05:58:18;;;;;;;11.63;6.63;;;-1.30;99.90;;;;;;5059956;28;20427;-78
2021/04/15 06:01:00;;;;;;;15.27;6.78;;;-1.30;99.90;;;;;;5059887;28;20425;-78
2021/04/15 06:03:37;;;;;;;13.10;7.65;;;-1.30;99.90;;;;;;5058543;28;20063;-78
2021/04/15 06:06:12;;;;;;;17.27;7.85;;;-1.20;99.90;;;;;;5058648;28;20031;-84
2021/04/15 06:08:43;;;;;;;14.43;7.75;;;-1.10;99.90;;;;;;5058596;28;20455;-83
2021/04/15 06:11:38;;;;;;;15.95;8.75;;;-1.10;99.90;;;;;;5057722;28;20029;-80
2021/04/15 06:14:14;;;;;;;18.05;8.40;;;-1.00;99.90;;;;;;5058897;28;20024;-78
2021/04/15 06:16:59;;;;;;;13.60;7.55;;;-0.90;99.90;;;;;;5058893;28;20032;-78
2021/04/15 06:19:28;;;;;;;15.65;8.13;;;-0.90;99.90;;;;;;5058214;28;20373;-80
2021/04/15 06:22:09;;;;;;;14.30;8.48;;;-0.80;99.90;;;;;;5055678;28;20024;-79
2021/04/15 06:24:38;;;;;;;16.95;8.00;;;-0.70;99.90;;;;;;5038768;28;20159;-78
2021/04/15 06:27:08;;;;;;;21.58;9.25;;;-0.70;99.90;;;;;;5020766;28;20033;-79
2021/04/15 06:29:56;;;;;;;19.13;8.82;;;-0.60;99.90;;;;;;5038424;28;20029;-78
2021/04/15 06:32:41;;;;;;;19.33;11.13;;;-0.50;99.90;;;;;;5038674;28;20405;-77
2021/04/15 06:35:23;;;;;;;21.48;10.13;;;-0.40;99.90;;;;;;5021490;28;20025;-78
2021/04/15 06:38:07;;;;;;;23.52;11.27;;;-0.40;99.90;;;;;;5039420;28;20021;-81
2021/04/15 06:41:11;;;;;;;21.88;10.30;;;-0.30;99.90;;;;;;5021540;28;20036;-82
2021/04/15 06:44:03;;;;;;;21.55;10.52;;;-0.20;99.90;;;;;;5039393;28;20108;-90
2021/04/15 06:46:58;;;;;;;16.80;8.98;;;-0.10;99.90;;;;;;5023030;28;20032;-96
2021/04/15 06:49:43;;;;;;;16.83;9.52;;;0.00;99.90;;;;;;5021999;28;20029;-96
2021/04/15 06:52:25;;;;;;;24.60;10.77;;;0.10;99.90;;;;;;5022464;28;20025;-75
2021/04/15 06:55:22;;;;;;;19.23;9.57;;;0.30;99.90;;;;;;5040416;28;20030;-85
2021/04/15 06:58:07;;;;;;;22.55;10.23;;;0.40;99.90;;;;;;5021496;28;20310;-82
2021/04/15 07:00:34;;;;;;;21.45;11.68;;;0.60;99.90;;;;;;5039004;28;20026;-79
2021/04/15 07:03:21;;;;;;;22.40;11.38;;;0.70;99.90;;;;;;5037745;28;20025;-82
2021/04/15 07:06:14;;;;;;;22.05;10.35;;;0.90;99.90;;;;;;5038705;28;20018;-79
2021/04/15 07:09:10;;;;;;;20.30;10.82;;;1.00;99.90;;;;;;5021239;28;20022;-78
2021/04/15 07:12:02;;;;;;;20.30;10.32;;;1.20;99.90;;;;;;5031064;28;20116;-81
2021/04/15 07:14:42;;;;;;;22.85;10.77;;;1.20;99.90;;;;;;5038603;28;20068;-79
2021/04/15 07:17:49;;;;;;;21.25;10.65;;;1.30;99.90;;;;;;5038504;28;20468;-79
2021/04/15 07:20:43;;;;;;;23.92;11.00;;;1.40;99.90;;;;;;5017963;28;20490;-79
2021/04/15 07:23:14;;;;;;;20.73;10.10;;;1.50;99.90;;;;;;5043074;28;20091;-78
2021/04/15 07:26:00;;;;;;;27.67;13.05;;;1.60;99.90;;;;;;5057133;28;20032;-79
2021/04/15 07:28:55;;;;;;;21.65;11.50;;;1.70;99.90;;;;;;5058511;28;20074;-78
2021/04/15 07:31:56;;;;;;;20.13;11.23;;;1.80;99.90;;;;;;5058091;28;20028;-78
2021/04/15 07:34:46;;;;;;;27.08;11.63;;;1.80;99.90;;;;;;5058162;28;20025;-77
2021/04/15 07:37:48;;;;;;;22.63;10.18;;;1.90;99.90;;;;;;5057007;28;20024;-79
2021/04/15 07:40:46;;;;;;;24.35;10.77;;;2.00;99.90;;;;;;5058245;28;20029;-78
2021/04/15 07:43:31;;;;;;;20.00;9.10;;;2.10;99.90;;;;;;5056951;28;20381;-77
2021/04/15 07:46:33;;;;;;;17.08;9.70;;;2.20;99.90;;;;;;5057801;28;20052;-77
2021/04/15 07:49:20;;;;;;;22.73;9.90;;;2.40;99.90;;;;;;5057970;28;20017;-79
2021/04/15 07:52:05;;;;;;;23.83;9.48;;;2.50;99.90;;;;;;5057669;28;20024;-79
2021/04/15 07:55:13;;;;;;;17.92;9.63;;;2.60;99.90;;;;;;5056217;28;20026;-75
2021/04/15 07:58:00;;;;;;;18.52;9.05;;;2.70;99.90;;;;;;5057712;28;20017;-80
2021/04/15 08:00:50;;;;;;;18.67;8.98;;;2.80;99.90;;;;;;5056390;28;20321;-78
2021/04/15 08:03:44;;;;;;;25.73;8.60;;;2.90;99.90;;;;;;5057746;28;20053;-81
2021/04/15 08:06:30;;;;;;;17.35;8.32;;;3.00;99.90;;;;;;5057540;28;20353;-79
2021/04/15 08:09:01;;;;;;;16.42;7.95;;;3.10;99.90;;;;;;5056371;28;20029;-84
2021/04/15 08:11:41;;;;;;;18.48;8.30;;;3.10;99.90;;;;;;5056414;28;20055;-79
2021/04/15 08:14:36;;;;;;;18.88;8.43;;;3.20;99.90;;;;;;5056320;28;20021;-82
2021/04/15 08:17:36;;;;;;;16.38;8.68;;;3.40;99.90;;;;;;5056166;28;20337;-80
2021/04/15 08:20:29;;;;;;;17.40;7.93;;;3.40;99.90;;;;;;5056201;28;20123;-81
2021/04/15 08:23:15;;;;;;;20.38;8.43;;;3.50;99.90;;;;;;5055847;28;20069;-78
2021/04/15 08:26:13;;;;;;;17.50;8.57;;;3.70;99.90;;;;;;5056098;28;20498;-76
2021/04/15 08:29:02;;;;;;;13.10;7.38;;;3.80;99.90;;;;;;5056162;28;20053;-78
2021/04/15 08:31:49;;;;;;;17.23;7.70;;;3.90;99.90;;;;;;5056089;28;20017;-77
2021/04/15 08:34:38;;;;;;;13.65;6.65;;;4.00;99.90;;;;;;5056686;28;20053;-77
2021/04/15 08:37:41;;;;;;;14.65;6.68;;;4.20;99.90;;;;;;5056084;28;20033;-79
2021/04/15 08:40:24;;;;;;;13.43;7.50;;;4.30;99.90;;;;;;5055941;28;20416;-79
2021/04/15 08:43:07;;;;;;;13.63;5.18;;;4.40;99.90;;;;;;5056035;28;20032;-80
2021/04/15 08:45:43;;;;;;;13.15;6.10;;;4.50;99.90;;;;;;5055961;28;20021;-80
2021/04/15 08:48:40;;;;;;;13.32;4.88;;;4.60;99.90;;;;;;5056190;28;20028;-82
2021/04/15 08:51:36;;;;;;;10.38;5.43;;;4.70;99.90;;;;;;5055981;28;20115;-79
2021/04/15 08:54:40;;;;;;;9.18;4.70;;;4.90;99.90;;;;;;5055831;28;20032;-77
2021/04/15 08:57:30;;;;;;;13.43;4.43;;;5.10;99.90;;;;;;5055905;28;20328;-80
2021/04/15 09:00:25;;;;;;;8.07;3.58;;;5.20;99.90;;;;;;5054946;28;20025;-79
2021/04/15 09:03:21;;;;;;;13.20;4.13;;;5.30;99.70;;;;;;5054772;28;20436;-78
2021/04/15 09:06:07;;;;;;;11.10;5.10;;;5.50;98.80;;;;;;5055936;28;20413;-79
2021/04/15 09:08:43;;;;;;;13.43;4.10;;;5.60;98.20;;;;;;5055173;28;20033;-78
2021/04/15 09:11:45;;;;;;;10.10;4.00;;;5.70;96.00;;;;;;5054951;28;20500;-78
2021/04/15 09:14:42;;;;;;;10.32;4.85;;;5.80;94.70;;;;;;5054831;28;20033;-79
2021/04/15 09:17:31;;;;;;;12.90;4.65;;;5.90;94.50;;;;;;5055792;28;20055;-78
2021/04/15 09:20:17;;;;;;;11.77;4.50;;;6.00;94.70;;;;;;5056166;28;20055;-78
2021/04/15 09:23:06;;;;;;;6.88;3.95;;;6.10;94.20;;;;;;5047631;28;20053;-79
2021/04/15 09:26:04;;;;;;;10.82;4.03;;;6.20;93.10;;;;;;5020403;28;20079;-79
2021/04/15 09:28:53;;;;;;;14.75;4.60;;;6.30;92.00;;;;;;5040999;28;20017;-79
2021/04/15 09:31:52;;;;;;;6.10;2.90;;;6.50;91.80;;;;;;5040591;28;20102;-80
2021/04/15 09:34:54;;;;;;;7.78;3.15;;;6.60;91.60;;;;;;5022770;28;20021;-78
2021/04/15 09:37:36;;;;;;;11.93;3.38;;;6.60;90.30;;;;;;5040578;28;20032;-79
2021/04/15 09:40:21;;;;;;;8.23;2.92;;;6.70;90.00;;;;;;5040070;28;20032;-79
2021/04/15 09:43:15;;;;;;;6.88;3.38;;;6.80;89.70;;;;;;5039594;28;20026;-79
2021/04/15 09:46:09;;;;;;;6.00;3.15;;;6.90;87.00;;;;;;5039348;28;20021;-79
2021/04/15 09:48:54;;;;;;;8.05;2.92;;;7.00;80.10;;;;;;5021470;28;20026;-81
2021/04/15 09:51:40;;;;;;;11.57;3.00;;;7.10;77.40;;;;;;5021749;28;20024;-79
2021/04/15 09:54:50;;;;;;;6.70;2.80;;;7.20;75.60;;;;;;5039392;28;20030;-80
2021/04/15 09:57:53;;;;;;;7.18;2.58;;;7.30;75.40;;;;;;4981383;28;20034;-81
2021/04/15 10:00:38;;;;;;;5.75;3.05;;;7.40;77.90;;;;;;5039316;28;20029;-79
2021/04/15 10:03:17;;;;;;;7.07;3.25;;;7.50;76.50;;;;;;5040014;28;20108;-80
2021/04/15 10:05:59;;;;;;;4.50;2.08;;;7.60;73.10;;;;;;5022100;28;20026;-82
2021/04/15 10:08:49;;;;;;;5.13;3.00;;;7.70;72.80;;;;;;5039789;28;20026;-77
2021/04/15 10:11:53;;;;;;;4.95;2.55;;;7.80;70.50;;;;;;5039724;28;20106;-82
2021/04/15 10:14:41;;;;;;;7.22;2.70;;;7.80;70.60;;;;;;5022201;28;20022;-82
2021/04/15 10:17:34;;;;;;;7.95;2.20;;;8.00;71.90;;;;;;5039531;28;20021;-82
2021/04/15 10:20:30;;;;;;;4.28;2.30;;;8.20;71.40;;;;;;5020978;28;20108;-79
2021/04/15 10:23:05;;;;;;;5.10;2.50;;;8.50;69.60;;;;;;5038910;28;20049;-84
2021/04/15 10:25:59;;;;;;;5.68;2.65;;;8.70;68.50;;;;;;5057607;28;20571;-80
2021/04/15 10:28:58;;;;;;;6.57;2.63;;;9.00;68.50;;;;;;5057401;28;20029;-81
2021/04/15 10:31:42;;;;;;;6.38;2.35;;;9.30;64.20;;;;;;5057833;28;20029;-80
2021/04/15 10:34:45;;;;;;;5.18;2.60;;;9.40;61.70;;;;;;5057246;28;20033;-81
2021/04/15 10:37:25;;;;;;;5.00;2.13;;;9.40;63.30;;;;;;5056967;28;20025;-78
2021/04/15 10:40:11;;;;;;;7.90;3.90;;;9.50;60.90;;;;;;5057885;28;20425;-80
2021/04/15 10:43:09;;;;;;;5.93;2.35;;;9.40;62.20;;;;;;5059594;28;20420;-81
2021/04/15 10:45:58;;;;;;;8.35;2.70;;;9.40;62.80;;;;;;5058161;28;20024;-83
2021/04/15 10:48:41;;;;;;;6.13;2.88;;;9.40;62.50;;;;;;5058133;28;20028;-88
2021/04/15 10:51:18;;;;;;;5.70;2.72;;;9.40;63.20;;;;;;5058414;28;20409;-85
2021/04/15 10:53:52;;;;;;;5.57;2.40;;;9.30;63.40;;;;;;5059145;28;20025;-89
2021/04/15 10:56:26;;;;;;;4.60;2.25;;;9.30;62.50;;;;;;5057816;28;20035;-80
2021/04/15 10:59:07;;;;;;;5.82;2.30;;;9.30;61.70;;;;;;5058357;28;20298;-78
2021/04/15 11:01:43;;;;;;;4.07;2.00;;;9.20;62.30;;;;;;5056705;28;20382;-79
2021/04/15 11:04:10;;;;;;;;;;;9.20;61.70;;;;;;5056927;28;20033;-80
2021/04/15 11:07:06;;;;;;;3.95;2.03;;;9.20;62.10;;;;;;5058150;28;19912;-79
2021/04/15 11:10:14;;;;;;;4.57;2.08;;;9.30;62.30;;;;;;5056581;28;20024;-79
2021/04/15 11:13:34;;;;;;;6.25;2.22;;;9.30;61.90;;;;;;5056590;28;20401;-80
2021/04/15 11:16:03;;;;;;;5.72;2.83;;;9.40;62.10;;;;;;5056642;28;20040;-80
2021/04/15 11:18:36;;;;;;;5.28;2.05;;;9.50;61.60;;;;;;5056805;28;20028;-79
2021/04/15 11:21:29;;;;;;;6.20;2.10;;;9.60;61.10;;;;;;5057281;28;20021;-81
2021/04/15 11:24:17;;;;;;;3.88;1.60;;;9.70;61.70;;;;;;5039507;28;20041;-80
2021/04/15 11:26:50;;;;;;;4.80;1.52;;;9.80;60.40;;;;;;5020721;28;20022;-83
2021/04/15 11:29:38;;;;;;;5.13;1.92;;;10.00;58.60;;;;;;5038647;28;20409;-80
2021/04/15 11:32:45;;;;;;;4.75;1.50;;;10.10;58.50;;;;;;5038307;28;20052;-84
2021/04/15 11:35:20;;;;;;;2.90;1.20;;;10.20;59.10;;;;;;4980873;28;20442;-83
2021/04/15 11:37:50;;;;;;;1.65;0.52;;;10.30;55.50;;;;;;5017813;28;20086;-85
2021/04/15 11:40:42;;;;;;;1.67;0.90;;;10.40;55.30;;;;;;5037049;28;20022;-84
2021/04/15 11:43:37;;;;;;;1.75;0.90;;;10.40;54.80;;;;;;5019316;28;20032;-85
2021/04/15 11:46:28;;;;;;;5.43;1.40;;;10.30;53.50;;;;;;5035808;28;20038;-83
2021/04/15 11:49:15;;;;;;;2.60;1.35;;;10.30;54.50;;;;;;5019028;28;20017;-81
2021/04/15 11:52:03;;;;;;;5.60;1.10;;;10.30;55.10;;;;;;5037506;28;20057;-80
2021/04/15 11:54:31;;;;;;;7.13;1.50;;;10.30;55.20;;;;;;5037051;28;20074;-78
2021/04/15 11:57:19;;;;;;;3.88;1.60;;;10.30;55.00;;;;;;5019539;28;20076;-82
2021/04/15 12:00:00;;;;;;;5.05;1.80;;;10.30;54.90;;;;;;5020121;28;20032;-82
2021/04/15 12:02:43;;;;;;;5.20;2.30;;;10.40;54.40;;;;;;5037944;28;20033;-80
2021/04/15 12:05:19;;;;;;;5.72;1.70;;;10.40;54.80;;;;;;5020045;28;20017;-77
2021/04/15 12:08:02;;;;;;;2.58;1.45;;;10.60;54.00;;;;;;5020131;28;20022;-74
2021/04/15 12:10:45;;;;;;;3.20;0.90;;;10.70;52.10;;;;;;5037741;28;20026;-78
2021/04/15 12:13:30;;;;;;;5.45;1.40;;;10.70;53.60;;;;;;5037713;28;20022;-78
2021/04/15 12:16:03;;;;;;;7.53;1.48;;;10.70;53.20;;;;;;5020076;28;20032;-76
2021/04/15 12:18:38;;;;;;;2.38;1.30;;;10.70;52.70;;;;;;5020805;28;20036;-78
2021/04/15 12:21:24;;;;;;;2.40;1.30;;;10.70;53.40;;;;;;5036895;28;20029;-83
2021/04/15 12:23:58;;;;;;;3.83;1.33;;;10.70;53.40;;;;;;5051392;28;20037;-81
2021/04/15 12:26:54;;;;;;;4.13;1.08;;;10.80;53.60;;;;;;5056465;28;20036;-75
2021/04/15 12:29:42;;;;;;;2.45;1.70;;;11.00;52.50;;;;;;5055474;28;20043;-80
2021/04/15 12:32:36;;;;;;;2.35;0.90;;;11.20;51.40;;;;;;5056539;28;20409;-76
2021/04/15 12:35:17;;;;;;;4.28;1.25;;;11.60;49.70;;;;;;5055440;28;20399;-77
2021/04/15 12:38:02;;;;;;;1.92;1.10;;;11.60;49.40;;;;;;5056860;28;20025;-79
2021/04/15 12:40:34;;;;;;;2.90;1.48;;;11.60;49.10;;;;;;5056005;28;20024;-78
2021/04/15 12:43:11;;;;;;;3.08;1.40;;;11.60;49.50;;;;;;5056315;28;20029;-75
2021/04/15 12:45:44;;;;;;;4.20;2.08;;;11.50;49.90;;;;;;5057218;28;20045;-80
2021/04/15 12:48:30;;;;;;;1.75;1.13;;;11.30;49.20;;;;;;5056334;28;20052;-77
2021/04/15 12:51:00;;;;;;;2.53;0.90;;;11.20;50.10;;;;;;5056222;28;20017;-79
2021/04/15 12:53:29;;;;;;;3.80;1.40;;;10.90;51.40;;;;;;5056163;28;20040;-85
2021/04/15 12:55:57;;;;;;;1.90;0.98;;;10.80;52.40;;;;;;5057081;28;20085;-79
2021/04/15 12:58:24;;;;;;;5.50;1.30;;;10.60;51.90;;;;;;5054977;28;20052;-78
2021/04/15 13:00:58;;;;;;;6.18;1.40;;;10.50;52.40;;;;;;5058676;28;20021;-78
2021/04/15 13:03:34;;;;;;;3.08;1.10;;;10.30;52.80;;;;;;5059758;28;20047;-77
2021/04/15 13:06:13;;;;;;;3.22;1.10;;;10.20;53.40;;;;;;5060112;28;20017;-77
2021/04/15 13:08:48;;;;;;;3.42;1.40;;;10.20;53.30;;;;;;5059012;28;20032;-77
2021/04/15 13:11:18;;;;;;;3.75;1.40;;;10.00;53.70;;;;;;5060236;28;20082;-78
2021/04/15 13:13:46;;;;;;;2.42;1.17;;;10.00;53.60;;;;;;5058949;28;20032;-76
2021/04/15 13:16:37;;;;;;;2.08;1.13;;;9.90;53.60;;;;;;5058831;28;20336;-76
2021/04/15 13:19:22;;;;;;;3.92;1.52;;;9.90;53.00;;;;;;5060782;28;20031;-79
2021/04/15 13:22:17;;;;;;;3.33;1.00;;;9.90;53.50;;;;;;5059919;28;20298;-79
2021/04/15 13:25:07;;;;;;;5.30;1.30;;;9.90;54.00;;;;;;5023248;28;20068;-79
2021/04/15 13:27:35;;;;;;;3.47;1.25;;;9.90;53.90;;;;;;5041057;28;20029;-75
2021/04/15 13:30:29;;;;;;;6.43;2.70;;;9.90;54.00;;;;;;5023117;28;20108;-76
2021/04/15 13:33:18;;;;;;;4.38;1.60;;;10.00;53.70;;;;;;5023170;28;20394;-81
2021/04/15 13:36:01;;;;;;;2.35;1.13;;;10.10;53.90;;;;;;5040440;28;20033;-76
2021/04/15 13:38:28;;;;;;;3.03;1.20;;;10.20;53.40;;;;;;5040078;28;20029;-78
2021/04/15 13:41:08;;;;;;;4.03;1.27;;;10.30;53.40;;;;;;5039919;28;20032;-76
2021/04/15 13:43:44;;;;;;;2.80;1.38;;;10.40;53.20;;;;;;5039498;28;20322;-77
2021/04/15 13:46:32;;;;;;;;;;;10.50;52.60;;;;;;5040096;28;20071;-77
2021/04/15 13:49:03;;;;;;;2.00;1.25;;;10.60;52.20;;;;;;5022486;28;20186;-75
2021/04/15 13:51:40;;;;;;;2.83;1.30;;;10.60;52.80;;;;;;5039270;28;20354;-76
2021/04/15 13:54:20;;;;;;;3.10;1.33;;;10.60;52.90;;;;;;5039513;28;20028;-77
2021/04/15 13:56:57;;;;;;;4.03;1.55;;;10.60;52.90;;;;;;5021587;28;20041;-75
2021/04/15 13:59:39;;;;;;;4.70;2.55;;;10.50;53.50;;;;;;5040299;28;20024;-78
2021/04/15 14:02:16;;;;;;;3.60;1.38;;;10.50;53.20;;;;;;5022356;28;20128;-78
2021/04/15 14:04:57;;;;;;;3.70;1.20;;;10.60;53.40;;;;;;5040578;28;20394;-76